Time;durP1;ratioP1;P1;durP2;ratioP2;P2;SDS_P1;SDS_P2;PMS_P1;PMS_P2;Temp;Humidity;BMP_temperature;BMP_pressure;BME280_temperature;BME280_humidity;BME280_pressure;Samples;Min_cycle;Max_cycle;Signal;HPM_P1;HPM_P2
2023/12/25 00:00:07;;;;;;;5.40;4.30;;;;;;;6.53;100.00;96306.02;106252;1283;22558;-76
2023/12/25 00:02:55;;;;;;;5.30;3.90;;;;;;;6.53;100.00;96302.10;106239;1273;25419;-76
2023/12/25 00:05:23;;;;;;;4.90;4.40;;;;;;;6.52;100.00;96301.79;106278;1273;23727;-77
2023/12/25 00:07:51;;;;;;;6.10;4.10;;;;;;;6.54;100.00;96305.55;106568;1283;22575;-75
2023/12/25 00:10:20;;;;;;;5.50;3.60;;;;;;;6.55;100.00;96300.95;106293;1277;24282;-76
2023/12/25 00:12:48;;;;;;;4.40;3.60;;;;;;;6.57;100.00;96302.71;106278;1270;23367;-76
2023/12/25 00:15:16;;;;;;;6.80;4.30;;;;;;;6.58;100.00;96290.92;106206;1277;22581;-75
2023/12/25 00:17:43;;;;;;;4.00;3.40;;;;;;;6.58;100.00;96293.97;106170;1283;25264;-77
2023/12/25 00:20:16;;;;;;;5.00;4.50;;;;;;;6.59;100.00;96288.94;106416;1277;25443;-76
2023/12/25 00:22:44;;;;;;;5.30;4.10;;;;;;;6.59;100.00;96280.63;106289;1270;25440;-76
2023/12/25 00:25:11;;;;;;;4.30;3.70;;;;;;;6.59;100.00;96277.29;106313;1270;25340;-74
2023/12/25 00:27:39;;;;;;;4.30;3.60;;;;;;;6.60;100.00;96271.81;106242;1271;24234;-77
2023/12/25 00:30:08;;;;;;;4.10;3.40;;;;;;;6.61;100.00;96274.98;106151;1273;23029;-78
2023/12/25 00:32:36;;;;;;;4.10;3.70;;;;;;;6.61;100.00;96275.68;106550;1283;22539;-79
2023/12/25 00:35:04;;;;;;;4.50;3.60;;;;;;;6.63;100.00;96273.52;106625;1273;25692;-77
2023/12/25 00:37:32;;;;;;;5.60;3.70;;;;;;;6.65;100.00;96274.25;106658;1274;22551;-79
2023/12/25 00:40:00;;;;;;;3.90;3.20;;;;;;;6.66;100.00;96275.98;106756;1269;22576;-78
2023/12/25 00:42:28;;;;;;;3.30;3.00;;;;;;;6.67;100.00;96284.36;106619;1273;22643;-78
2023/12/25 00:44:56;;;;;;;4.10;3.70;;;;;;;6.67;100.00;96285.20;106706;1282;22546;-77
2023/12/25 00:47:24;;;;;;;4.10;3.70;;;;;;;6.68;100.00;96285.02;106299;1278;23930;-78
2023/12/25 00:49:52;;;;;;;5.50;3.10;;;;;;;6.71;100.00;96290.03;106597;1282;22587;-78
2023/12/25 00:52:20;;;;;;;4.80;3.80;;;;;;;6.73;100.00;96287.13;106549;1268;22586;-80
2023/12/25 00:54:48;;;;;;;3.90;3.20;;;;;;;6.74;100.00;96286.89;106565;1273;22589;-78
2023/12/25 00:57:16;;;;;;;4.50;3.40;;;;;;;6.75;100.00;96287.09;106769;1273;24078;-78
2023/12/25 00:59:44;;;;;;;3.50;3.10;;;;;;;6.77;100.00;96283.84;106766;1261;24308;-77
2023/12/25 01:02:12;;;;;;;3.90;3.10;;;;;;;6.78;100.00;96284.55;106852;1273;22548;-79
2023/12/25 01:04:40;;;;;;;3.70;3.40;;;;;;;6.79;100.00;96285.70;106615;1282;25626;-79
2023/12/25 01:07:08;;;;;;;4.60;3.40;;;;;;;6.83;100.00;96288.96;106752;1275;23422;-79
2023/12/25 01:09:36;;;;;;;4.20;3.30;;;;;;;6.86;100.00;96300.98;106856;1282;23927;-79
2023/12/25 01:12:04;;;;;;;4.20;3.40;;;;;;;6.89;100.00;96304.85;106641;1282;24227;-78
2023/12/25 01:14:32;;;;;;;3.80;3.10;;;;;;;6.91;100.00;96298.15;106828;1280;22608;-78
2023/12/25 01:17:00;;;;;;;4.10;3.30;;;;;;;6.94;100.00;96302.02;106652;1282;22544;-77
2023/12/25 01:19:30;;;;;;;4.20;3.00;;;;;;;6.98;100.00;96316.27;106349;1273;26527;-79
2023/12/25 01:21:58;;;;;;;3.30;2.60;;;;;;;7.03;100.00;96307.38;106309;1280;23206;-78
2023/12/25 01:24:26;;;;;;;3.90;3.40;;;;;;;7.06;100.00;96318.33;106358;1264;22540;-78
2023/12/25 01:26:54;;;;;;;3.50;3.10;;;;;;;7.07;100.00;96327.17;106348;1274;25401;-78
2023/12/25 01:29:22;;;;;;;4.60;2.80;;;;;;;7.10;100.00;96320.09;106356;1268;23255;-78
2023/12/25 01:31:50;;;;;;;3.10;2.80;;;;;;;7.14;100.00;96323.94;106407;1277;24233;-77
2023/12/25 01:34:18;;;;;;;3.20;2.90;;;;;;;7.18;100.00;96322.35;106270;1283;24400;-77
2023/12/25 01:36:46;;;;;;;3.40;3.10;;;;;;;7.22;100.00;96328.91;106378;1280;25447;-79
2023/12/25 01:39:14;;;;;;;3.60;3.20;;;;;;;7.28;100.00;96328.63;106638;1271;25164;-78
2023/12/25 01:41:42;;;;;;;3.20;2.90;;;;;;;7.33;100.00;96326.17;106616;1277;25384;-79
2023/12/25 01:44:12;;;;;;;2.80;2.40;;;;;;;7.38;100.00;96329.61;106282;1273;24377;-76
2023/12/25 01:46:49;;;;;;;3.20;2.70;;;;;;;7.43;100.00;96333.10;106310;1282;24034;-77
2023/12/25 01:49:17;;;;;;;2.70;2.50;;;;;;;7.47;100.00;96333.44;106169;1283;25566;-77
2023/12/25 01:51:46;;;;;;;2.80;2.60;;;;;;;7.53;100.00;96335.52;106243;1279;24278;-77
2023/12/25 01:54:14;;;;;;;3.10;2.80;;;;;;;7.56;100.00;96328.61;106271;1283;22550;-78
2023/12/25 01:56:43;;;;;;;3.30;2.80;;;;;;;7.59;100.00;96321.23;106347;1282;24330;-77
2023/12/25 01:59:11;;;;;;;3.80;3.10;;;;;;;7.64;100.00;96320.78;106168;1274;22537;-77
2023/12/25 02:01:39;;;;;;;2.90;2.50;;;;;;;7.70;100.00;96324.84;106267;1283;25383;-77
2023/12/25 02:04:07;;;;;;;3.80;3.10;;;;;;;7.73;100.00;96317.17;106258;1271;22551;-77
2023/12/25 02:06:36;;;;;;;4.00;3.20;;;;;;;7.76;100.00;96317.36;106259;1273;22655;-77
2023/12/25 02:09:05;;;;;;;2.50;2.30;;;;;;;7.81;100.00;96320.33;106266;1273;22534;-77
2023/12/25 02:11:39;;;;;;;3.60;2.90;;;;;;;7.85;100.00;96321.98;106249;1276;22543;-77
2023/12/25 02:14:08;;;;;;;3.30;2.90;;;;;;;7.88;100.00;96320.83;106437;1274;25318;-77
2023/12/25 02:16:38;;;;;;;3.00;2.70;;;;;;;7.89;100.00;96321.30;106289;1283;24218;-78
2023/12/25 02:19:18;;;;;;;4.70;2.40;;;;;;;7.93;100.00;96323.54;106299;1283;22560;-77
2023/12/25 02:21:46;;;;;;;2.90;2.60;;;;;;;7.96;100.00;96317.27;106351;1273;22540;-77
2023/12/25 02:24:21;;;;;;;3.40;2.60;;;;;;;7.97;100.00;96309.19;106272;1283;25429;-77
2023/12/25 02:26:49;;;;;;;2.80;2.40;;;;;;;8.02;100.00;96308.16;106268;1280;24415;-77
2023/12/25 02:29:17;;;;;;;3.40;3.10;;;;;;;8.07;100.00;96321.66;106198;1283;23641;-77
2023/12/25 02:31:49;;;;;;;2.80;2.40;;;;;;;8.11;100.00;96310.47;106266;1273;23000;-77
2023/12/25 02:34:17;;;;;;;3.00;2.70;;;;;;;8.13;100.00;96314.84;106262;1283;22641;-77
2023/12/25 02:36:45;;;;;;;3.50;2.90;;;;;;;8.17;100.00;96309.09;106250;1270;24294;-77
2023/12/25 02:39:14;;;;;;;3.20;2.90;;;;;;;8.23;100.00;96316.61;106214;1283;23919;-77
2023/12/25 02:41:41;;;;;;;2.80;2.60;;;;;;;8.27;100.00;96305.11;106178;1265;22547;-76
2023/12/25 02:44:09;;;;;;;3.20;2.80;;;;;;;8.29;100.00;96310.65;106279;1280;22974;-77
2023/12/25 02:46:40;;;;;;;3.00;2.70;;;;;;;8.33;100.00;96309.34;106229;1271;22595;-77
2023/12/25 02:49:08;;;;;;;2.90;2.60;;;;;;;8.34;100.00;96310.16;106257;1273;22536;-76
2023/12/25 02:51:37;;;;;;;2.70;2.20;;;;;;;8.36;100.00;96326.79;106295;1272;25394;-76
2023/12/25 02:54:04;;;;;;;2.90;2.50;;;;;;;8.40;100.00;96320.92;106271;1281;22530;-76
2023/12/25 02:56:32;;;;;;;3.40;2.50;;;;;;;8.46;100.00;96324.13;106142;1270;22536;-75
2023/12/25 02:59:00;;;;;;;3.70;2.60;;;;;;;8.48;100.00;96330.68;106278;1273;22956;-75
2023/12/25 03:01:28;;;;;;;3.00;2.40;;;;;;;8.51;100.00;96328.65;106149;1273;25264;-75
2023/12/25 03:03:56;;;;;;;2.60;2.40;;;;;;;8.55;100.00;96323.13;106222;1268;24230;-75
2023/12/25 03:06:24;;;;;;;2.60;2.40;;;;;;;8.60;100.00;96339.54;106245;1283;24289;-77
2023/12/25 03:08:52;;;;;;;3.50;2.70;;;;;;;8.62;100.00;96333.23;106319;1273;24408;-76
2023/12/25 03:11:20;;;;;;;3.30;2.70;;;;;;;8.63;100.00;96328.99;106338;1283;22491;-76
2023/12/25 03:13:48;;;;;;;2.80;2.50;;;;;;;8.66;100.00;96327.40;106356;1268;23932;-76
2023/12/25 03:16:18;;;;;;;4.20;2.50;;;;;;;8.70;100.00;96322.23;106208;1282;22546;-76
2023/12/25 03:18:46;;;;;;;2.00;1.90;;;;;;;8.71;100.00;96330.73;106234;1268;25529;-77
2023/12/25 03:21:15;;;;;;;2.70;2.40;;;;;;;8.74;100.00;96326.85;106212;1283;24227;-75
2023/12/25 03:23:43;;;;;;;3.10;2.60;;;;;;;8.78;100.00;96327.14;106187;1269;22572;-75
2023/12/25 03:26:11;;;;;;;3.10;2.30;;;;;;;8.77;100.00;96326.98;106185;1283;22534;-75
2023/12/25 03:28:38;;;;;;;2.60;2.30;;;;;;;8.78;100.00;96337.91;106317;1283;23948;-75
2023/12/25 03:31:07;;;;;;;2.70;2.30;;;;;;;8.79;100.00;96330.42;106208;1283;24981;-75
2023/12/25 03:33:36;;;;;;;2.60;2.40;;;;;;;8.81;100.00;96331.73;106242;1283;22527;-76
2023/12/25 03:36:05;;;;;;;3.20;2.60;;;;;;;8.79;100.00;96329.28;106349;1283;25423;-76
2023/12/25 03:38:34;;;;;;;4.00;2.90;;;;;;;8.77;100.00;96338.34;106254;1283;24279;-76
2023/12/25 03:41:02;;;;;;;2.90;2.70;;;;;;;8.76;100.00;96331.83;106346;1269;22544;-76
2023/12/25 03:43:31;;;;;;;2.50;2.20;;;;;;;8.71;100.00;96339.92;106373;1276;22553;-77
2023/12/25 03:45:59;;;;;;;2.80;2.50;;;;;;;8.65;100.00;96334.10;106393;1274;23912;-76
2023/12/25 03:48:27;;;;;;;2.20;2.00;;;;;;;8.59;100.00;96337.42;106300;1282;25258;-76
2023/12/25 03:50:55;;;;;;;2.70;2.20;;;;;;;8.56;100.00;96328.15;106261;1282;24233;-76
2023/12/25 03:53:23;;;;;;;3.80;2.60;;;;;;;8.53;100.00;96349.29;106225;1280;24233;-75
2023/12/25 03:55:51;;;;;;;3.40;2.60;;;;;;;8.51;100.00;96337.68;106206;1268;22946;-75
2023/12/25 03:58:19;;;;;;;2.50;2.30;;;;;;;8.48;100.00;96335.13;106319;1269;24273;-75
2023/12/25 04:00:47;;;;;;;2.10;1.90;;;;;;;8.53;100.00;96351.51;106248;1272;22540;-76
2023/12/25 04:03:15;;;;;;;3.70;2.30;;;;;;;8.59;100.00;96343.52;106206;1283;23387;-76
2023/12/25 04:05:43;;;;;;;2.80;2.40;;;;;;;8.63;100.00;96341.85;106150;1267;24240;-76
2023/12/25 04:08:11;;;;;;;2.70;2.40;;;;;;;8.67;100.00;96346.69;106247;1280;24256;-75
2023/12/25 04:10:39;;;;;;;2.50;2.30;;;;;;;8.73;100.00;96351.83;106147;1268;22558;-75
2023/12/25 04:13:07;;;;;;;2.70;2.30;;;;;;;8.78;100.00;96369.07;106258;1273;25282;-75
2023/12/25 04:15:35;;;;;;;2.50;2.30;;;;;;;8.83;100.00;96364.12;106293;1283;25397;-74
2023/12/25 04:18:04;;;;;;;2.30;2.10;;;;;;;8.87;100.00;96373.92;106186;1284;25396;-75
2023/12/25 04:20:32;;;;;;;2.60;2.30;;;;;;;8.92;100.00;96378.13;106112;1283;22561;-76
2023/12/25 04:23:00;;;;;;;2.50;2.30;;;;;;;8.92;100.00;96372.73;106181;1279;22559;-76
2023/12/25 04:25:28;;;;;;;2.60;2.10;;;;;;;8.93;100.00;96373.32;106165;1269;22564;-75
2023/12/25 04:27:56;;;;;;;2.90;2.40;;;;;;;8.92;100.00;96375.98;106266;1283;24390;-75
2023/12/25 04:30:23;;;;;;;2.20;2.00;;;;;;;8.92;100.00;96379.52;106252;1272;22566;-75
2023/12/25 04:32:52;;;;;;;2.50;2.30;;;;;;;8.92;100.00;96391.91;106295;1279;24368;-76
2023/12/25 04:35:20;;;;;;;3.00;2.50;;;;;;;8.89;100.00;96397.71;106285;1281;22544;-76
2023/12/25 04:37:48;;;;;;;2.90;2.60;;;;;;;8.84;100.00;96417.11;106160;1269;22668;-77
2023/12/25 04:40:17;;;;;;;2.50;2.20;;;;;;;8.79;100.00;96404.39;106250;1270;26661;-76
2023/12/25 04:42:45;;;;;;;2.50;2.30;;;;;;;8.73;100.00;96410.07;106139;1282;23155;-76
2023/12/25 04:45:13;;;;;;;2.60;2.40;;;;;;;8.68;100.00;96405.48;106150;1283;24380;-76
2023/12/25 04:47:41;;;;;;;2.40;2.20;;;;;;;8.64;100.00;96427.11;106258;1274;25357;-76
2023/12/25 04:50:09;;;;;;;3.20;2.70;;;;;;;8.59;100.00;96424.02;106117;1283;25555;-77
2023/12/25 04:52:37;;;;;;;4.20;2.40;;;;;;;8.57;100.00;96408.98;106114;1268;22810;-75
2023/12/25 04:55:05;;;;;;;2.80;2.30;;;;;;;8.55;100.00;96411.65;106209;1271;22549;-75
2023/12/25 04:57:34;;;;;;;2.30;2.10;;;;;;;8.55;100.00;96417.77;106288;1282;22549;-74
2023/12/25 05:00:03;;;;;;;2.70;2.50;;;;;;;8.57;100.00;96410.90;106163;1264;22611;-76
2023/12/25 05:02:31;;;;;;;2.40;2.00;;;;;;;8.59;100.00;96410.52;106301;1261;25516;-76
2023/12/25 05:04:59;;;;;;;3.00;2.70;;;;;;;8.60;100.00;96408.92;106368;1270;23446;-76
2023/12/25 05:07:27;;;;;;;2.70;2.50;;;;;;;8.61;100.00;96422.94;106340;1283;22772;-75
2023/12/25 05:09:55;;;;;;;3.30;3.00;;;;;;;8.62;100.00;96432.27;106392;1283;23893;-75
2023/12/25 05:12:22;;;;;;;3.00;2.70;;;;;;;8.63;100.00;96424.71;106257;1264;24166;-76
2023/12/25 05:14:50;;;;;;;2.90;2.30;;;;;;;8.64;100.00;96433.26;106230;1271;22527;-76
2023/12/25 05:17:18;;;;;;;2.70;2.50;;;;;;;8.66;100.00;96435.19;106363;1270;25319;-76
2023/12/25 05:19:47;;;;;;;3.60;3.10;;;;;;;8.65;100.00;96436.83;106305;1280;22582;-77
2023/12/25 05:22:15;;;;;;;2.60;2.40;;;;;;;8.66;100.00;96433.70;106240;1272;22565;-76
2023/12/25 05:24:43;;;;;;;2.60;2.40;;;;;;;8.68;100.00;96446.73;106250;1273;23490;-76
2023/12/25 05:27:11;;;;;;;2.30;2.10;;;;;;;8.69;100.00;96443.11;106275;1280;22538;-76
2023/12/25 05:29:39;;;;;;;2.60;2.40;;;;;;;8.72;100.00;96442.23;106248;1270;24286;-76
2023/12/25 05:32:07;;;;;;;3.40;2.80;;;;;;;8.72;100.00;96446.77;106290;1272;25307;-78
2023/12/25 05:34:35;;;;;;;2.90;2.70;;;;;;;8.70;100.00;96453.66;106253;1270;22631;-76
2023/12/25 05:37:03;;;;;;;2.00;1.80;;;;;;;8.69;100.00;96442.61;106275;1283;24228;-75
2023/12/25 05:39:31;;;;;;;2.30;2.10;;;;;;;8.71;100.00;96431.64;106323;1278;25652;-75
2023/12/25 05:41:59;;;;;;;3.20;2.70;;;;;;;8.72;100.00;96432.64;106309;1264;25304;-75
2023/12/25 05:44:27;;;;;;;2.70;2.50;;;;;;;8.70;100.00;96443.54;106435;1282;26752;-75
2023/12/25 05:46:55;;;;;;;3.50;2.40;;;;;;;8.69;100.00;96444.94;106322;1271;22618;-76
2023/12/25 05:49:23;;;;;;;3.00;2.70;;;;;;;8.69;100.00;96445.25;106240;1268;22686;-76
2023/12/25 05:51:51;;;;;;;2.30;2.00;;;;;;;8.70;100.00;96448.38;106335;1270;23364;-76
2023/12/25 05:54:19;;;;;;;4.10;2.90;;;;;;;8.72;100.00;96448.24;106332;1269;22792;-75
2023/12/25 05:56:47;;;;;;;3.10;2.40;;;;;;;8.72;100.00;96431.27;106404;1282;25338;-75
2023/12/25 05:59:15;;;;;;;2.80;2.50;;;;;;;8.76;100.00;96426.99;106335;1278;22537;-75
2023/12/25 06:01:46;;;;;;;3.00;2.50;;;;;;;8.81;100.00;96428.48;106427;1271;25455;-75
2023/12/25 06:04:14;;;;;;;3.60;2.60;;;;;;;8.83;100.00;96430.88;106388;1279;22535;-75
2023/12/25 06:06:42;;;;;;;2.30;2.00;;;;;;;8.84;100.00;96433.98;106229;1274;22546;-75
2023/12/25 06:09:11;;;;;;;2.50;2.30;;;;;;;8.89;100.00;96426.49;106292;1276;23161;-75
2023/12/25 06:11:39;;;;;;;3.00;2.80;;;;;;;8.92;100.00;96448.47;106259;1273;24203;-75
2023/12/25 06:14:08;;;;;;;4.40;2.40;;;;;;;8.95;100.00;96455.28;106315;1279;25366;-75
2023/12/25 06:16:36;;;;;;;2.60;2.30;;;;;;;8.99;100.00;96449.86;106322;1282;25513;-76
2023/12/25 06:19:03;;;;;;;2.30;2.10;;;;;;;9.05;100.00;96463.05;106114;1273;22588;-76
2023/12/25 06:21:31;;;;;;;2.80;2.50;;;;;;;9.07;100.00;96462.29;106262;1274;23272;-76
2023/12/25 06:23:59;;;;;;;2.70;2.50;;;;;;;9.06;100.00;96458.52;106270;1277;22554;-76
2023/12/25 06:26:27;;;;;;;3.90;3.00;;;;;;;9.07;100.00;96442.96;106202;1271;25446;-76
2023/12/25 06:28:55;;;;;;;2.70;2.50;;;;;;;9.08;100.00;96447.08;106248;1273;22560;-76
2023/12/25 06:31:23;;;;;;;3.80;3.40;;;;;;;9.12;100.00;96440.52;106291;1283;22797;-75
2023/12/25 06:33:51;;;;;;;3.60;2.70;;;;;;;9.09;100.00;96443.56;106290;1283;25828;-75
2023/12/25 06:36:19;;;;;;;3.00;2.60;;;;;;;9.10;100.00;96450.91;106287;1276;24371;-75
2023/12/25 06:38:47;;;;;;;2.80;2.50;;;;;;;9.14;100.00;96446.91;106214;1277;22549;-75
2023/12/25 06:41:16;;;;;;;3.20;2.60;;;;;;;9.15;100.00;96446.24;106257;1278;22662;-76
2023/12/25 06:43:43;;;;;;;3.50;2.10;;;;;;;9.16;100.00;96442.16;106447;1283;24285;-75
2023/12/25 06:46:12;;;;;;;2.80;2.20;;;;;;;9.17;100.00;96444.79;106566;1277;23288;-75
2023/12/25 06:48:42;;;;;;;5.30;3.20;;;;;;;9.18;100.00;96459.64;106381;1282;26304;-76
2023/12/25 06:51:10;;;;;;;3.20;2.40;;;;;;;9.19;100.00;96453.02;106304;1283;22593;-77
2023/12/25 06:53:38;;;;;;;2.90;2.40;;;;;;;9.20;100.00;96462.27;106321;1282;22634;-75
2023/12/25 06:56:07;;;;;;;4.10;3.70;;;;;;;9.22;100.00;96470.86;106328;1281;22552;-75
2023/12/25 06:58:35;;;;;;;4.10;3.00;;;;;;;9.23;100.00;96480.56;106209;1283;24301;-76
2023/12/25 07:01:06;;;;;;;4.00;3.20;;;;;;;9.23;100.00;96488.02;106268;1284;22548;-76
2023/12/25 07:03:34;;;;;;;4.60;3.90;;;;;;;9.18;100.00;96497.05;106277;1276;22557;-74
2023/12/25 07:06:02;;;;;;;5.70;4.60;;;;;;;9.15;100.00;96496.54;106256;1283;25382;-76
2023/12/25 07:08:31;;;;;;;4.20;2.70;;;;;;;9.12;100.00;96503.02;106211;1277;25382;-76
2023/12/25 07:10:58;;;;;;;3.60;3.30;;;;;;;9.09;100.00;96512.23;106177;1273;25330;-76
2023/12/25 07:13:26;;;;;;;4.90;3.90;;;;;;;9.02;100.00;96499.86;106227;1277;25445;-76
2023/12/25 07:15:54;;;;;;;3.70;2.90;;;;;;;8.95;100.00;96488.98;106192;1281;22559;-76
2023/12/25 07:18:22;;;;;;;5.10;4.00;;;;;;;8.95;100.00;96488.23;106203;1274;22543;-76
2023/12/25 07:20:50;;;;;;;3.80;3.00;;;;;;;8.91;100.00;96486.80;106196;1271;23926;-75
2023/12/25 07:23:19;;;;;;;3.00;2.40;;;;;;;8.90;100.00;96494.15;106242;1278;24275;-75
2023/12/25 07:25:47;;;;;;;3.60;3.00;;;;;;;8.90;100.00;96492.38;106286;1273;25435;-74
2023/12/25 07:28:15;;;;;;;2.40;2.20;;;;;;;8.90;100.00;96494.45;106249;1269;22569;-74
2023/12/25 07:30:43;;;;;;;4.60;3.60;;;;;;;8.93;100.00;96495.35;106215;1272;24435;-75
2023/12/25 07:33:11;;;;;;;4.10;3.10;;;;;;;8.97;100.00;96489.67;106220;1270;26215;-76
2023/12/25 07:35:40;;;;;;;4.40;3.50;;;;;;;8.96;100.00;96495.64;106316;1284;22543;-75
2023/12/25 07:38:08;;;;;;;4.10;3.00;;;;;;;8.96;100.00;96497.48;106332;1270;24212;-75
2023/12/25 07:40:36;;;;;;;4.20;3.80;;;;;;;9.02;100.00;96505.55;106325;1273;25383;-75
2023/12/25 07:43:07;;;;;;;4.10;3.50;;;;;;;9.05;100.00;96515.12;106267;1284;25625;-75
2023/12/25 07:45:34;;;;;;;4.70;3.80;;;;;;;9.08;100.00;96512.01;106216;1284;22571;-76
2023/12/25 07:48:03;;;;;;;3.80;2.80;;;;;;;9.12;100.00;96519.83;106232;1284;22727;-75
2023/12/25 07:50:31;;;;;;;3.30;3.00;;;;;;;9.18;100.00;96505.73;106250;1270;24035;-75
2023/12/25 07:52:59;;;;;;;3.50;2.70;;;;;;;9.24;100.00;96510.89;106224;1271;23932;-75
2023/12/25 07:55:27;;;;;;;3.90;3.40;;;;;;;9.29;100.00;96500.84;106248;1270;25434;-76
2023/12/25 07:57:55;;;;;;;4.20;3.00;;;;;;;9.31;100.00;96490.27;106322;1271;22554;-74
2023/12/25 08:00:24;;;;;;;4.50;3.80;;;;;;;9.35;100.00;96488.47;106354;1272;25263;-74
2023/12/25 08:02:52;;;;;;;5.50;3.90;;;;;;;9.39;100.00;96486.57;106215;1283;22540;-76
2023/12/25 08:05:20;;;;;;;4.00;3.10;;;;;;;9.40;100.00;96491.45;106268;1270;22547;-76
2023/12/25 08:07:48;;;;;;;3.60;3.00;;;;;;;9.41;100.00;96507.27;106099;1271;23932;-76
2023/12/25 08:10:16;;;;;;;3.60;3.20;;;;;;;9.44;100.00;96503.29;106210;1283;26668;-76
2023/12/25 08:12:44;;;;;;;4.30;3.50;;;;;;;9.47;100.00;96501.34;106246;1283;24227;-75
2023/12/25 08:15:15;;;;;;;3.60;3.00;;;;;;;9.48;100.00;96500.06;106243;1277;22959;-76
2023/12/25 08:17:43;;;;;;;3.30;3.00;;;;;;;9.49;100.00;96491.50;106290;1283;22567;-75
2023/12/25 08:20:11;;;;;;;3.50;2.50;;;;;;;9.51;100.00;96511.60;106210;1280;22561;-76
2023/12/25 08:22:39;;;;;;;3.20;2.60;;;;;;;9.53;100.00;96517.64;106263;1273;22544;-77
2023/12/25 08:25:07;;;;;;;3.20;2.80;;;;;;;9.55;100.00;96507.54;106253;1283;23134;-75
2023/12/25 08:27:35;;;;;;;3.60;2.80;;;;;;;9.54;100.00;96511.59;106297;1270;23418;-76
2023/12/25 08:30:05;;;;;;;3.40;2.90;;;;;;;9.56;100.00;96516.03;106268;1272;22655;-74
2023/12/25 08:32:33;;;;;;;4.20;2.80;;;;;;;9.60;99.93;96516.73;106268;1266;25943;-75
2023/12/25 08:35:03;;;;;;;3.40;3.10;;;;;;;9.64;99.23;96517.58;106271;1261;25377;-74
2023/12/25 08:37:31;;;;;;;4.00;3.20;;;;;;;9.65;98.88;96511.72;106262;1283;25515;-75
2023/12/25 08:39:59;;;;;;;5.90;3.70;;;;;;;9.70;99.10;96521.93;106312;1273;22784;-74
2023/12/25 08:42:27;;;;;;;4.10;3.20;;;;;;;9.74;98.76;96514.40;106336;1283;25389;-75
2023/12/25 08:44:55;;;;;;;4.80;3.40;;;;;;;9.75;98.03;96522.76;106367;1276;26670;-76
2023/12/25 08:47:24;;;;;;;6.00;4.60;;;;;;;9.75;97.87;96525.92;106346;1270;22551;-75
2023/12/25 08:49:52;;;;;;;4.70;3.30;;;;;;;9.75;98.32;96540.76;106394;1283;22539;-75
2023/12/25 08:52:21;;;;;;;4.30;3.40;;;;;;;9.77;98.14;96543.43;106284;1283;24394;-74
2023/12/25 08:54:49;;;;;;;3.70;2.50;;;;;;;9.75;97.80;96550.29;106323;1270;26729;-75
2023/12/25 08:57:17;;;;;;;4.40;3.70;;;;;;;9.68;98.26;96550.99;106349;1280;23975;-75
2023/12/25 08:59:49;;;;;;;4.30;3.20;;;;;;;9.61;99.51;96543.88;106275;1269;25371;-74
2023/12/25 09:02:19;;;;;;;4.20;3.00;;;;;;;9.57;99.92;96538.20;106340;1273;25319;-75
2023/12/25 09:04:51;;;;;;;3.30;2.90;;;;;;;9.55;99.84;96543.34;106406;1280;22552;-75
2023/12/25 09:07:19;;;;;;;3.40;3.00;;;;;;;9.52;99.92;96554.76;106287;1270;22534;-76
2023/12/25 09:09:47;;;;;;;3.80;3.20;;;;;;;9.49;100.00;96548.59;106262;1283;22563;-75
2023/12/25 09:12:15;;;;;;;4.10;2.90;;;;;;;9.50;100.00;96545.02;106340;1270;22547;-76
2023/12/25 09:14:45;;;;;;;5.00;3.50;;;;;;;9.49;100.00;96548.33;106240;1264;24711;-77
2023/12/25 09:17:15;;;;;;;5.90;4.00;;;;;;;9.49;99.97;96557.33;106388;1272;22783;-75
2023/12/25 09:19:43;;;;;;;5.80;5.00;;;;;;;9.50;100.00;96554.45;106285;1273;24279;-75
2023/12/25 09:22:11;;;;;;;9.70;6.30;;;;;;;9.49;100.00;96547.96;106246;1283;25482;-76
2023/12/25 09:24:46;;;;;;;5.20;4.20;;;;;;;9.48;100.00;96558.44;106241;1273;23465;-76
2023/12/25 09:27:14;;;;;;;4.20;3.40;;;;;;;9.48;100.00;96551.45;106249;1280;22629;-75
2023/12/25 09:29:42;;;;;;;5.60;3.80;;;;;;;9.49;100.00;96550.02;106245;1275;22570;-75
2023/12/25 09:32:10;;;;;;;4.40;3.20;;;;;;;9.53;100.00;96558.41;106313;1283;22590;-76
2023/12/25 09:34:38;;;;;;;6.30;4.80;;;;;;;9.53;100.00;96564.86;106289;1282;22548;-75
2023/12/25 09:37:25;;;;;;;6.60;5.00;;;;;;;9.51;100.00;96552.44;106355;1283;22793;-75
2023/12/25 09:39:54;;;;;;;5.90;4.10;;;;;;;9.57;100.00;96548.80;106458;1273;24386;-75
2023/12/25 09:42:22;;;;;;;6.40;4.70;;;;;;;9.57;100.00;96544.57;106276;1283;25552;-75
2023/12/25 09:44:54;;;;;;;5.60;4.50;;;;;;;9.54;100.00;96540.86;106288;1269;22567;-75
2023/12/25 09:47:23;;;;;;;4.80;3.70;;;;;;;9.52;100.00;96564.77;106314;1272;22575;-76
2023/12/25 09:49:54;;;;;;;5.40;4.60;;;;;;;9.53;100.00;96557.17;106283;1270;22548;-75
2023/12/25 09:52:24;;;;;;;4.30;3.40;;;;;;;9.49;100.00;96565.80;106190;1283;126810;-75
2023/12/25 09:54:52;;;;;;;5.30;3.70;;;;;;;9.48;100.00;96573.90;106249;1283;22555;-75
2023/12/25 09:57:22;;;;;;;10.70;7.00;;;;;;;9.48;100.00;96562.45;106163;1268;22560;-74
2023/12/25 09:59:52;;;;;;;11.20;8.20;;;;;;;9.48;100.00;96572.20;106346;1273;22567;-75
2023/12/25 10:02:22;;;;;;;6.10;3.40;;;;;;;9.46;100.00;96564.52;106198;1283;25536;-76
2023/12/25 10:04:50;;;;;;;5.20;4.50;;;;;;;9.50;100.00;96560.89;106271;1282;22554;-74
2023/12/25 10:07:21;;;;;;;4.90;3.80;;;;;;;9.48;100.00;96555.39;106281;1268;23167;-74
2023/12/25 10:09:54;;;;;;;5.10;4.10;;;;;;;9.49;100.00;96561.24;106132;1276;22647;-74
2023/12/25 10:12:22;;;;;;;4.60;3.80;;;;;;;9.44;100.00;96562.05;106220;1277;25542;-75
2023/12/25 10:14:50;;;;;;;4.70;3.60;;;;;;;9.41;100.00;96561.09;106247;1270;22761;-73
2023/12/25 10:17:18;;;;;;;4.90;4.00;;;;;;;9.45;100.00;96559.14;106297;1280;24319;-73
2023/12/25 10:19:52;;;;;;;5.30;3.50;;;;;;;9.50;100.00;96569.49;106190;1275;24253;-75
2023/12/25 10:22:37;;;;;;;7.40;4.20;;;;;;;9.51;100.00;96553.42;106338;1273;22580;-75
2023/12/25 10:25:10;;;;;;;5.20;4.20;;;;;;;9.56;100.00;96558.15;106213;1282;24281;-75
2023/12/25 10:27:40;;;;;;;4.70;3.60;;;;;;;9.61;100.00;96571.30;106375;1276;22546;-75
2023/12/25 10:30:14;;;;;;;6.00;4.40;;;;;;;9.65;100.00;96556.20;106213;1282;22547;-75
2023/12/25 10:32:43;;;;;;;4.50;3.80;;;;;;;9.68;100.00;96565.30;106292;1270;23939;-75
2023/12/25 10:35:14;;;;;;;6.00;4.50;;;;;;;9.68;99.98;96565.98;106241;1283;25378;-76
2023/12/25 10:37:42;;;;;;;4.90;3.60;;;;;;;9.70;100.00;96561.92;106357;1273;25718;-77
2023/12/25 10:40:27;;;;;;;5.50;4.40;;;;;;;9.74;99.74;96553.30;106276;1260;25472;-75
2023/12/25 10:42:56;;;;;;;6.30;4.60;;;;;;;9.74;99.21;96571.61;106676;1277;22629;-74
2023/12/25 10:45:30;;;;;;;6.50;3.90;;;;;;;9.76;99.36;96575.84;106283;1270;22547;-74
2023/12/25 10:48:00;;;;;;;;;;;;;;;9.81;99.73;96556.05;106380;1260;23351;-75
2023/12/25 10:50:36;;;;;;;5.80;4.50;;;;;;;9.85;99.05;96558.54;106356;1280;25388;-75
2023/12/25 10:53:05;;;;;;;9.90;6.00;;;;;;;9.84;98.98;96557.23;106339;1277;22554;-75
2023/12/25 10:55:40;;;;;;;6.20;4.90;;;;;;;9.83;98.70;96560.80;106256;1272;22550;-75
2023/12/25 10:58:11;;;;;;;5.50;4.10;;;;;;;9.85;99.03;96560.10;106321;1280;22552;-75
2023/12/25 11:00:47;;;;;;;7.30;6.00;;;;;;;9.88;98.86;96557.15;106295;1270;26676;-75
2023/12/25 11:03:16;;;;;;;7.30;4.40;;;;;;;9.89;98.44;96558.50;106354;1264;22593;-74
2023/12/25 11:05:44;;;;;;;5.80;4.20;;;;;;;9.89;97.89;96565.33;106143;1280;22930;-76
2023/12/25 11:08:15;;;;;;;6.00;3.50;;;;;;;9.91;97.92;96566.70;106237;1280;25305;-74
2023/12/25 11:10:54;;;;;;;9.60;6.30;;;;;;;9.91;97.73;96557.40;106349;1263;25386;-76
2023/12/25 11:13:22;;;;;;;6.20;4.10;;;;;;;9.90;97.58;96566.05;106233;1273;27637;-75
2023/12/25 11:15:50;;;;;;;5.30;3.80;;;;;;;9.90;97.09;96559.30;106280;1276;24290;-74
2023/12/25 11:18:18;;;;;;;6.50;4.90;;;;;;;9.95;97.14;96567.30;106283;1280;23013;-74
2023/12/25 11:21:03;;;;;;;8.80;8.00;;;;;;;10.00;97.04;96570.98;106360;1280;22551;-75
2023/12/25 11:23:33;;;;;;;7.30;5.30;;;;;;;10.03;96.07;96570.02;106301;1283;23842;-75
2023/12/25 11:26:05;;;;;;;13.10;11.90;;;;;;;10.02;96.39;96562.83;106266;1260;24240;-74
2023/12/25 11:28:42;;;;;;;7.20;5.60;;;;;;;10.03;96.43;96561.36;106398;1270;24379;-75
2023/12/25 11:31:20;;;;;;;5.90;4.20;;;;;;;10.04;96.58;96568.20;106350;1274;25303;-79
2023/12/25 11:33:48;;;;;;;21.00;17.40;;;;;;;10.07;96.47;96564.92;106617;1280;25375;-79